createdAt,value
2018-03-20T00:00:54.272Z,-1.70
2018-03-20T00:01:57.499Z,-1.80
2018-03-20T00:03:00.737Z,-1.70
2018-03-20T00:04:03.956Z,-1.70
2018-03-20T00:05:07.214Z,-1.70
2018-03-20T00:06:11.207Z,-1.80
2018-03-20T00:07:15.279Z,-1.80
2018-03-20T00:08:18.468Z,-1.80
2018-03-20T00:09:21.710Z,-1.80
2018-03-20T00:10:24.979Z,-1.80
2018-03-20T00:11:28.211Z,-1.70
2018-03-20T00:12:31.468Z,-1.70
2018-03-20T00:13:34.752Z,-1.70
2018-03-20T00:14:38.027Z,-1.70
2018-03-20T00:15:41.247Z,-1.80
2018-03-20T00:16:44.536Z,-1.80
2018-03-20T00:17:48.730Z,-1.70
2018-03-20T00:18:51.951Z,-1.80
2018-03-20T00:19:55.952Z,-1.70
2018-03-20T00:20:59.960Z,-1.70
2018-03-20T00:22:03.925Z,-1.70
2018-03-20T00:23:07.171Z,-1.80
2018-03-20T00:24:10.412Z,-1.80
2018-03-20T00:25:14.418Z,-1.80
2018-03-20T00:26:17.657Z,-1.80
2018-03-20T00:27:20.899Z,-1.70
2018-03-20T00:28:24.171Z,-1.70
2018-03-20T00:29:28.171Z,-1.70
2018-03-20T00:30:31.480Z,-1.70
2018-03-20T00:31:34.742Z,-1.80
2018-03-20T00:32:38.746Z,-1.80
2018-03-20T00:33:42.728Z,-1.80
2018-03-20T00:34:46.751Z,-1.90
2018-03-20T00:35:50.765Z,-1.90
2018-03-20T00:36:53.995Z,-1.90
2018-03-20T00:37:57.236Z,-1.90
2018-03-20T00:39:00.521Z,-1.90
2018-03-20T00:40:03.794Z,-1.90
2018-03-20T00:41:07.020Z,-1.90
2018-03-20T00:42:10.264Z,-1.90
2018-03-20T00:43:13.501Z,-1.90
2018-03-20T00:44:17.558Z,-1.80
2018-03-20T00:45:20.806Z,-1.80
2018-03-20T00:46:24.805Z,-1.80
2018-03-20T00:47:28.823Z,-1.80
2018-03-20T00:48:32.102Z,-1.80
2018-03-20T00:49:35.326Z,-1.80
2018-03-20T00:50:38.551Z,-1.80
2018-03-20T00:51:41.797Z,-1.80
2018-03-20T00:52:45.101Z,-1.80
2018-03-20T00:53:48.332Z,-1.70
2018-03-20T00:54:52.366Z,-1.70
2018-03-20T00:55:55.603Z,-1.70
2018-03-20T00:56:58.858Z,-1.80
2018-03-20T00:58:02.059Z,-1.80
2018-03-20T00:59:05.275Z,-1.80
2018-03-20T01:00:09.265Z,-1.90
2018-03-20T01:01:12.496Z,-1.90
2018-03-20T01:02:15.792Z,-1.90
2018-03-20T01:03:19.037Z,-1.80
2018-03-20T01:04:22.308Z,-1.80
2018-03-20T01:05:26.407Z,-1.80
2018-03-20T01:06:29.796Z,-1.80
2018-03-20T01:07:33.791Z,-1.80
2018-03-20T01:08:37.009Z,-1.90
2018-03-20T01:09:40.252Z,-1.80
2018-03-20T01:10:43.486Z,-1.80
2018-03-20T01:11:46.731Z,-1.90
2018-03-20T01:12:51.109Z,-2.00
2018-03-20T01:13:54.306Z,-2.00
2018-03-20T01:14:57.553Z,-2.00
2018-03-20T01:16:00.775Z,-2.00
2018-03-20T01:17:04.027Z,-1.80
2018-03-20T01:18:07.231Z,-1.70
2018-03-20T01:19:10.475Z,-1.70
2018-03-20T01:20:14.017Z,-1.80
2018-03-20T01:21:17.226Z,-1.90
2018-03-20T01:22:20.466Z,-1.90
2018-03-20T01:23:23.710Z,-2.00
2018-03-20T01:24:26.930Z,-1.90
2018-03-20T01:25:30.240Z,-1.90
2018-03-20T01:26:34.237Z,-1.70
2018-03-20T01:27:38.257Z,-1.90
2018-03-20T01:28:41.484Z,-1.90
2018-03-20T01:29:44.710Z,-1.90
2018-03-20T01:30:48.698Z,-2.00
2018-03-20T01:31:52.691Z,-2.10
2018-03-20T01:32:56.024Z,-2.10
2018-03-20T01:33:59.343Z,-2.10
2018-03-20T01:35:02.597Z,-2.00
2018-03-20T01:36:05.863Z,-2.00
2018-03-20T01:37:09.102Z,-1.90
2018-03-20T01:38:12.327Z,-1.80
2018-03-20T01:39:15.553Z,-1.80
2018-03-20T01:40:18.828Z,-1.80
2018-03-20T01:41:22.047Z,-1.80
2018-03-20T01:42:25.286Z,-1.80
2018-03-20T01:43:28.512Z,-1.80
2018-03-20T01:44:31.741Z,-1.90
2018-03-20T01:45:34.962Z,-1.90
2018-03-20T01:46:39.725Z,-2.00
2018-03-20T01:47:43.703Z,-2.00
2018-03-20T01:48:47.677Z,-2.00
2018-03-20T01:49:50.936Z,-2.00
2018-03-20T01:50:54.942Z,-2.10
2018-03-20T01:51:58.981Z,-2.10
2018-03-20T01:53:14.050Z,-2.20
2018-03-20T01:54:17.242Z,-2.10
2018-03-20T01:55:20.464Z,-2.00
2018-03-20T01:56:24.592Z,-2.00
2018-03-20T01:57:27.842Z,-2.00
2018-03-20T01:58:31.085Z,-1.90
2018-03-20T01:59:34.300Z,-1.90
2018-03-20T02:00:37.538Z,-1.90
2018-03-20T02:01:40.786Z,-1.90
2018-03-20T02:02:44.822Z,-1.80
2018-03-20T02:03:48.066Z,-1.80
2018-03-20T02:04:52.080Z,-1.70
2018-03-20T02:05:56.066Z,-1.70
2018-03-20T02:07:00.058Z,-1.70
2018-03-20T02:08:04.057Z,-1.80
2018-03-20T02:09:07.362Z,-1.80
2018-03-20T02:10:11.373Z,-1.70
2018-03-20T02:11:15.342Z,-1.70
2018-03-20T02:12:18.587Z,-1.70
2018-03-20T02:13:21.845Z,-1.70
2018-03-20T02:14:25.071Z,-1.60
2018-03-20T02:15:28.312Z,-1.80
2018-03-20T02:16:31.547Z,-1.80
2018-03-20T02:17:34.776Z,-1.80
2018-03-20T02:18:38.052Z,-1.90
2018-03-20T02:19:41.287Z,-2.10
2018-03-20T02:20:44.535Z,-2.20
2018-03-20T02:21:47.794Z,-2.20
2018-03-20T02:22:51.798Z,-2.20
2018-03-20T02:23:55.799Z,-2.20
2018-03-20T02:24:59.769Z,-2.20
2018-03-20T02:26:03.008Z,-2.20
2018-03-20T02:27:06.234Z,-2.20
2018-03-20T02:28:09.473Z,-2.00
2018-03-20T02:29:12.744Z,-2.20
2018-03-20T02:30:16.809Z,-2.30
2018-03-20T02:31:20.066Z,-2.30
2018-03-20T02:32:24.876Z,-2.40
2018-03-20T02:33:28.249Z,-2.40
2018-03-20T02:34:31.530Z,-2.30
2018-03-20T02:35:34.853Z,-2.30
2018-03-20T02:36:38.085Z,-2.20
2018-03-20T02:37:41.320Z,-2.30
2018-03-20T02:38:44.563Z,-2.30
2018-03-20T02:39:47.855Z,-2.40
2018-03-20T02:40:51.118Z,-2.40
2018-03-20T02:41:54.393Z,-2.50
2018-03-20T02:42:57.611Z,-2.60
2018-03-20T02:44:01.003Z,-2.70
2018-03-20T02:45:04.245Z,-2.60
2018-03-20T02:46:07.687Z,-2.60
2018-03-20T02:47:11.751Z,-2.60
2018-03-20T02:48:14.985Z,-2.60
2018-03-20T02:49:18.692Z,-2.60
2018-03-20T02:50:22.728Z,-2.40
2018-03-20T02:51:26.024Z,-2.40
2018-03-20T02:52:29.316Z,-2.30
2018-03-20T02:53:32.548Z,-2.30
2018-03-20T02:54:35.843Z,-2.30
2018-03-20T02:55:39.844Z,-2.30
2018-03-20T02:56:43.858Z,-2.30
2018-03-20T02:57:47.126Z,-2.30
2018-03-20T02:58:51.114Z,-2.40
2018-03-20T02:59:55.106Z,-2.50
2018-03-20T03:00:58.354Z,-2.50
2018-03-20T03:02:02.357Z,-2.30
2018-03-20T03:03:05.606Z,-2.30
2018-03-20T03:04:08.834Z,-2.40
2018-03-20T03:05:12.100Z,-2.30
2018-03-20T03:06:15.326Z,-2.30
2018-03-20T03:07:20.221Z,-2.50
2018-03-20T03:08:23.422Z,-2.50
2018-03-20T03:09:26.750Z,-2.50
2018-03-20T03:10:29.980Z,-2.50
2018-03-20T03:11:33.294Z,-2.60
2018-03-20T03:12:37.367Z,-2.70
2018-03-20T03:13:40.613Z,-2.70
2018-03-20T03:14:43.909Z,-2.60
2018-03-20T03:15:47.382Z,-2.40
2018-03-20T03:16:50.730Z,-2.40
2018-03-20T03:17:53.991Z,-2.40
2018-03-20T03:18:57.196Z,-2.50
2018-03-20T03:20:01.198Z,-2.50
2018-03-20T03:21:05.273Z,-2.50
2018-03-20T03:22:09.283Z,-2.60
2018-03-20T03:23:12.542Z,-2.60
2018-03-20T03:24:15.850Z,-2.50
2018-03-20T03:25:19.087Z,-2.50
2018-03-20T03:26:22.366Z,-2.40
2018-03-20T03:27:25.596Z,-2.50
2018-03-20T03:28:29.593Z,-2.40
2018-03-20T03:29:32.942Z,-2.40
2018-03-20T03:30:36.159Z,-2.40
2018-03-20T03:31:39.412Z,-2.40
2018-03-20T03:32:42.725Z,-2.30
2018-03-20T03:33:45.937Z,-2.30
2018-03-20T03:34:49.968Z,-2.30
2018-03-20T03:35:53.215Z,-2.30
2018-03-20T03:36:56.509Z,-2.30
2018-03-20T03:38:00.519Z,-2.50
2018-03-20T03:39:03.767Z,-2.50
2018-03-20T03:40:07.225Z,-2.50
2018-03-20T03:41:10.463Z,-2.50
2018-03-20T03:42:14.543Z,-2.40
2018-03-20T03:43:17.794Z,-2.40
2018-03-20T03:44:21.017Z,-2.50
2018-03-20T03:45:24.261Z,-2.60
2018-03-20T03:46:27.493Z,-2.50
2018-03-20T03:47:31.508Z,-2.40
2018-03-20T03:48:34.769Z,-2.30
2018-03-20T03:49:38.026Z,-2.30
2018-03-20T03:50:41.318Z,-2.30
2018-03-20T03:51:44.616Z,-2.30
2018-03-20T03:52:47.830Z,-2.30
2018-03-20T03:53:51.840Z,-2.40
2018-03-20T03:54:55.077Z,-2.40
2018-03-20T03:55:58.350Z,-2.40
2018-03-20T03:57:01.563Z,-2.40
2018-03-20T03:58:04.861Z,-2.40
2018-03-20T03:59:08.913Z,-2.40
2018-03-20T04:00:12.286Z,-2.40
2018-03-20T04:01:15.541Z,-2.40
2018-03-20T04:02:18.874Z,-2.40
2018-03-20T04:03:22.260Z,-2.40
2018-03-20T04:04:25.493Z,-2.40
2018-03-20T04:05:28.763Z,-2.30
2018-03-20T04:06:32.844Z,-2.40
2018-03-20T04:07:36.084Z,-2.40
2018-03-20T04:08:39.315Z,-2.40
2018-03-20T04:09:43.324Z,-2.70
2018-03-20T04:10:46.570Z,-2.70
2018-03-20T04:11:49.882Z,-2.90
2018-03-20T04:12:53.139Z,-2.90
2018-03-20T04:13:56.364Z,-2.80
2018-03-20T04:14:59.603Z,-2.70
2018-03-20T04:16:02.951Z,-2.70
2018-03-20T04:17:06.145Z,-2.60
2018-03-20T04:18:09.378Z,-2.60
2018-03-20T04:19:12.700Z,-2.50
2018-03-20T04:20:15.905Z,-2.50
2018-03-20T04:21:19.904Z,-2.60
2018-03-20T04:22:23.924Z,-2.60
2018-03-20T04:23:27.188Z,-2.60
2018-03-20T04:24:31.188Z,-2.60
2018-03-20T04:25:35.189Z,-2.60
2018-03-20T04:26:38.408Z,-2.60
2018-03-20T04:27:41.649Z,-2.60
2018-03-20T04:28:45.642Z,-2.60
2018-03-20T04:29:48.889Z,-2.60
2018-03-20T04:30:52.168Z,-2.60
2018-03-20T04:31:55.403Z,-2.60
2018-03-20T04:32:59.436Z,-2.70
2018-03-20T04:34:02.711Z,-2.70
2018-03-20T04:35:05.934Z,-2.70
2018-03-20T04:36:09.181Z,-2.80
2018-03-20T04:37:12.444Z,-2.80
2018-03-20T04:38:16.457Z,-2.70
2018-03-20T04:39:19.668Z,-2.70
2018-03-20T04:40:22.974Z,-2.70
2018-03-20T04:41:26.195Z,-2.80
2018-03-20T04:42:30.193Z,-2.80
2018-03-20T04:43:34.219Z,-2.60
2018-03-20T04:44:38.259Z,-2.60
2018-03-20T04:45:41.493Z,-2.60
2018-03-20T04:46:44.836Z,-2.50
2018-03-20T04:47:48.058Z,-2.40
2018-03-20T04:48:52.036Z,-2.60
2018-03-20T04:49:55.365Z,-2.60
2018-03-20T04:50:58.584Z,-2.70
2018-03-20T04:52:01.819Z,-2.70
2018-03-20T04:53:05.106Z,-2.60
2018-03-20T04:54:08.431Z,-2.50
2018-03-20T04:55:11.720Z,-2.50
2018-03-20T04:56:14.921Z,-2.60
2018-03-20T04:57:18.941Z,-2.80
2018-03-20T04:58:22.962Z,-2.80
2018-03-20T04:59:26.194Z,-2.90
2018-03-20T05:00:29.443Z,-2.80
2018-03-20T05:01:32.671Z,-2.80
2018-03-20T05:02:36.654Z,-2.70
2018-03-20T05:03:39.883Z,-2.70
2018-03-20T05:04:43.157Z,-2.70
2018-03-20T05:05:46.352Z,-2.70
2018-03-20T05:06:49.590Z,-2.70
2018-03-20T05:07:52.820Z,-2.60
2018-03-20T05:08:56.252Z,-2.60
2018-03-20T05:09:59.458Z,-2.40
2018-03-20T05:11:03.455Z,-2.30
2018-03-20T05:12:06.677Z,-2.40
2018-03-20T05:13:09.929Z,-2.40
2018-03-20T05:14:13.982Z,-2.60
2018-03-20T05:15:17.266Z,-2.50
2018-03-20T05:16:20.473Z,-2.60
2018-03-20T05:17:23.713Z,-2.70
2018-03-20T05:18:27.039Z,-2.60
2018-03-20T05:19:46.060Z,-2.50
2018-03-20T05:22:23.080Z,-2.70
2018-03-20T05:24:55.064Z,-2.60
2018-03-20T05:25:59.080Z,-2.60
2018-03-20T05:27:02.317Z,-2.60
2018-03-20T05:28:05.528Z,-2.60
2018-03-20T05:29:09.574Z,-2.70
2018-03-20T05:30:12.801Z,-2.70
2018-03-20T05:31:16.081Z,-2.70
2018-03-20T05:32:19.332Z,-2.80
2018-03-20T05:33:22.552Z,-2.70
2018-03-20T05:34:26.552Z,-2.60
2018-03-20T05:35:29.944Z,-2.60
2018-03-20T05:36:33.172Z,-2.70
2018-03-20T05:37:36.404Z,-2.80
2018-03-20T05:38:39.665Z,-2.70
2018-03-20T05:39:42.953Z,-2.60
2018-03-20T05:40:46.191Z,-2.60
2018-03-20T05:41:50.181Z,-2.60
2018-03-20T05:42:54.330Z,-2.50
2018-03-20T05:43:57.629Z,-2.50
2018-03-20T05:45:00.876Z,-2.30
2018-03-20T05:46:04.134Z,-2.40
2018-03-20T05:49:04.951Z,-2.50
2018-03-20T05:50:13.918Z,-2.50
2018-03-20T05:51:21.003Z,-2.50
2018-03-20T05:52:25.153Z,-2.50
2018-03-20T05:53:29.184Z,-2.50
2018-03-20T05:54:32.449Z,-2.50
2018-03-20T05:55:36.449Z,-2.60
2018-03-20T05:56:40.511Z,-2.60
2018-03-20T05:57:43.811Z,-2.60
2018-03-20T05:58:47.154Z,-2.50
2018-03-20T05:59:50.399Z,-2.30
2018-03-20T06:00:53.784Z,-2.40
2018-03-20T06:01:57.034Z,-2.40
2018-03-20T06:03:00.261Z,-2.40
2018-03-20T06:04:03.507Z,-2.30
2018-03-20T06:05:06.732Z,-2.40
2018-03-20T06:06:09.987Z,-2.30
2018-03-20T06:07:13.253Z,-2.20
2018-03-20T06:08:16.477Z,-2.20
2018-03-20T06:09:19.779Z,-2.20
2018-03-20T06:10:23.870Z,-2.30
2018-03-20T06:11:27.861Z,-2.30
2018-03-20T06:12:31.138Z,-2.30
2018-03-20T06:13:34.344Z,-2.30
2018-03-20T06:14:37.609Z,-2.20
2018-03-20T06:15:40.817Z,-2.10
2018-03-20T06:16:44.048Z,-2.10
2018-03-20T06:17:47.352Z,-2.10
2018-03-20T06:18:51.353Z,-2.10
2018-03-20T06:19:55.333Z,-2.00
2018-03-20T06:20:58.579Z,-2.00
2018-03-20T06:22:01.828Z,-2.00
2018-03-20T06:23:05.842Z,-2.00
2018-03-20T06:24:09.285Z,-2.00
2018-03-20T06:25:12.574Z,-1.90
2018-03-20T06:26:15.835Z,-1.90
2018-03-20T06:27:19.065Z,-1.90
2018-03-20T06:28:23.108Z,-1.80
2018-03-20T06:29:26.316Z,-1.90
2018-03-20T06:30:29.531Z,-1.80
2018-03-20T06:31:33.553Z,-1.80
2018-03-20T06:32:36.784Z,-1.80
2018-03-20T06:33:40.164Z,-1.80
2018-03-20T06:34:43.365Z,-1.80
2018-03-20T06:35:46.621Z,-1.70
2018-03-20T06:36:49.978Z,-1.70
2018-03-20T06:37:54.069Z,-1.60
2018-03-20T06:38:58.050Z,-1.80
2018-03-20T06:40:02.062Z,-1.80
2018-03-20T06:41:06.077Z,-1.80
2018-03-20T06:42:09.304Z,-1.80
2018-03-20T06:43:13.416Z,-1.70
2018-03-20T06:44:16.647Z,-1.70
2018-03-20T06:45:20.000Z,-1.70
2018-03-20T06:46:23.308Z,-1.60
2018-03-20T06:47:26.561Z,-1.60
2018-03-20T06:48:29.808Z,-1.80
2018-03-20T06:49:33.044Z,-2.00
2018-03-20T06:50:37.029Z,-2.40
2018-03-20T06:51:40.737Z,-2.40
2018-03-20T06:52:44.724Z,-2.50
2018-03-20T06:53:47.977Z,-2.50
2018-03-20T06:54:51.410Z,-2.60
2018-03-20T06:55:54.634Z,-2.60
2018-03-20T06:56:57.853Z,-2.70
2018-03-20T06:58:01.082Z,-2.70
2018-03-20T06:59:04.309Z,-2.60
2018-03-20T07:00:07.593Z,-2.70
2018-03-20T07:01:10.803Z,-2.80
2018-03-20T07:02:14.791Z,-2.70
2018-03-20T07:03:18.030Z,-2.70
2018-03-20T07:04:21.264Z,-2.60
2018-03-20T07:05:25.261Z,-2.30
2018-03-20T07:06:29.251Z,-2.40
2018-03-20T07:07:32.517Z,-2.40
2018-03-20T07:08:35.785Z,-2.40
2018-03-20T07:09:39.030Z,-2.40
2018-03-20T07:10:43.032Z,-2.70
2018-03-20T07:11:47.076Z,-2.70
2018-03-20T07:12:50.320Z,-2.80
2018-03-20T07:13:53.547Z,-2.80
2018-03-20T07:14:56.808Z,-2.80
2018-03-20T07:16:00.059Z,-2.90
2018-03-20T07:17:04.041Z,-2.70
2018-03-20T07:18:07.277Z,-2.70
2018-03-20T07:19:10.500Z,-2.60
2018-03-20T07:20:13.768Z,-2.60
2018-03-20T07:21:16.995Z,-2.60
2018-03-20T07:22:21.006Z,-2.70
2018-03-20T07:23:24.246Z,-2.70
2018-03-20T07:24:27.503Z,-2.70
2018-03-20T07:25:30.730Z,-2.80
2018-03-20T07:26:33.950Z,-2.80
2018-03-20T07:27:37.185Z,-2.80
2018-03-20T07:28:40.450Z,-2.70
2018-03-20T07:29:43.666Z,-2.40
2018-03-20T07:30:47.679Z,-2.30
2018-03-20T07:31:50.939Z,-2.30
2018-03-20T07:32:54.165Z,-2.30
2018-03-20T07:33:57.431Z,-2.40
2018-03-20T07:35:00.682Z,-2.30
2018-03-20T07:36:03.929Z,-2.00
2018-03-20T07:37:07.156Z,-1.90
2018-03-20T07:38:10.394Z,-1.80
2018-03-20T07:39:13.633Z,-1.80
2018-03-20T07:40:17.637Z,-1.90
2018-03-20T07:41:21.708Z,-1.80
2018-03-20T07:42:24.965Z,-1.80
2018-03-20T07:43:28.227Z,-1.90
2018-03-20T07:44:31.479Z,-1.90
2018-03-20T07:45:34.763Z,-1.90
2018-03-20T07:46:38.004Z,-2.00
2018-03-20T07:47:41.255Z,-2.00
2018-03-20T07:48:44.492Z,-2.00
2018-03-20T07:49:47.732Z,-1.90
2018-03-20T07:50:50.963Z,-1.90
2018-03-20T07:51:54.309Z,-1.90
2018-03-20T07:52:57.534Z,-1.90
2018-03-20T07:54:00.793Z,-2.00
2018-03-20T07:55:04.099Z,-1.90
2018-03-20T07:56:07.324Z,-1.90
2018-03-20T07:57:10.552Z,-1.80
2018-03-20T07:58:13.798Z,-1.60
2018-03-20T07:59:17.018Z,-1.50
2018-03-20T08:00:20.260Z,-1.60
2018-03-20T08:01:23.498Z,-1.70
2018-03-20T08:02:26.729Z,-1.80
2018-03-20T08:03:29.956Z,-1.80
2018-03-20T08:04:34.258Z,-1.80
2018-03-20T08:05:38.257Z,-1.80
2018-03-20T08:06:41.494Z,-1.80
2018-03-20T08:07:46.239Z,-1.90
2018-03-20T08:08:50.261Z,-1.70
2018-03-20T08:09:53.494Z,-1.70
2018-03-20T08:10:56.744Z,-1.40
2018-03-20T08:11:59.976Z,-1.30
2018-03-20T08:13:04.043Z,-1.10
2018-03-20T08:14:07.246Z,-1.10
2018-03-20T08:15:11.992Z,-1.10
2018-03-20T08:16:16.042Z,-1.20
2018-03-20T08:17:19.364Z,-1.20
2018-03-20T08:18:23.368Z,-1.40
2018-03-20T08:19:26.652Z,-1.40
2018-03-20T08:20:29.847Z,-1.60
2018-03-20T08:21:33.838Z,-1.50
2018-03-20T08:22:37.876Z,-1.50
2018-03-20T08:23:41.108Z,-1.60
2018-03-20T08:24:45.843Z,-1.70
2018-03-20T08:25:49.886Z,-1.70
2018-03-20T08:26:53.132Z,-1.70
2018-03-20T08:27:57.153Z,-1.70
2018-03-20T08:29:00.549Z,-1.70
2018-03-20T08:30:03.805Z,-1.70
2018-03-20T08:31:07.830Z,-1.60
2018-03-20T08:32:11.062Z,-1.60
2018-03-20T08:33:15.835Z,-1.00
2018-03-20T08:34:19.110Z,-1.00
2018-03-20T08:35:22.347Z,-1.10
2018-03-20T08:36:25.586Z,-1.10
2018-03-20T08:37:28.808Z,-1.00
2018-03-20T08:38:32.042Z,-1.00
2018-03-20T08:39:35.296Z,-0.90
2018-03-20T08:40:39.305Z,-0.80
2018-03-20T08:41:42.533Z,-0.80
2018-03-20T08:42:45.758Z,-0.60
2018-03-20T08:43:48.979Z,-0.60
2018-03-20T08:44:52.241Z,-0.70
2018-03-20T08:45:56.265Z,-0.80
2018-03-20T08:46:59.503Z,-0.80
2018-03-20T08:48:02.731Z,-1.00
2018-03-20T08:49:06.004Z,-1.00
2018-03-20T08:50:09.234Z,-1.10
2018-03-20T08:51:12.564Z,-1.00
2018-03-20T08:52:15.809Z,-0.90
2018-03-20T08:53:19.035Z,-0.80
2018-03-20T08:54:22.336Z,-0.60
2018-03-20T08:55:25.588Z,-0.50
2018-03-20T08:56:29.589Z,-0.40
2018-03-20T08:57:33.596Z,-0.40
2018-03-20T08:58:37.610Z,-0.60
2018-03-20T08:59:41.588Z,-0.70
2018-03-20T09:00:45.652Z,-0.70
2018-03-20T09:01:48.929Z,-0.70
2018-03-20T09:02:52.159Z,-0.70
2018-03-20T09:03:56.176Z,-0.70
2018-03-20T09:05:04.290Z,-0.70
2018-03-20T09:06:07.511Z,-0.60
2018-03-20T09:07:10.753Z,-0.60
2018-03-20T09:08:13.971Z,-0.60
2018-03-20T09:09:17.197Z,-0.50
2018-03-20T09:10:21.205Z,-0.70
2018-03-20T09:11:24.443Z,-0.70
2018-03-20T09:12:28.512Z,-0.70
2018-03-20T09:13:31.670Z,-0.70
2018-03-20T09:14:34.949Z,-0.60
2018-03-20T09:15:38.946Z,-0.60
2018-03-20T09:16:42.964Z,-0.40
2018-03-20T09:17:46.190Z,-0.40
2018-03-20T09:18:49.437Z,-0.40
2018-03-20T09:19:52.695Z,-0.30
2018-03-20T09:20:56.696Z,-0.10
2018-03-20T09:22:00.680Z,0.10
2018-03-20T09:23:04.093Z,0.00
2018-03-20T09:24:07.311Z,0.10
2018-03-20T09:25:10.574Z,0.20
2018-03-20T09:26:13.826Z,0.00
2018-03-20T09:27:17.841Z,0.10
2018-03-20T09:28:21.072Z,0.20
2018-03-20T09:29:24.304Z,0.20
2018-03-20T09:30:27.532Z,0.10
2018-03-20T09:31:30.825Z,0.10
2018-03-20T09:32:34.046Z,0.20
2018-03-20T09:33:38.081Z,0.10
2018-03-20T09:34:41.322Z,0.10
2018-03-20T09:35:44.521Z,0.10
2018-03-20T09:36:47.745Z,0.30
2018-03-20T09:37:51.036Z,0.20
2018-03-20T09:38:54.315Z,0.10
2018-03-20T09:39:57.546Z,0.30
2018-03-20T09:41:01.552Z,0.20
2018-03-20T09:42:04.746Z,0.20
2018-03-20T09:43:07.981Z,0.30
2018-03-20T09:44:11.256Z,0.40
2018-03-20T09:45:14.512Z,0.40
2018-03-20T09:46:17.754Z,0.40
2018-03-20T09:47:20.973Z,0.50
2018-03-20T09:48:24.204Z,0.70
2018-03-20T09:49:27.438Z,0.80
2018-03-20T09:50:30.685Z,0.90
2018-03-20T09:51:33.940Z,0.80
2018-03-20T09:52:37.195Z,0.40
2018-03-20T09:53:40.554Z,0.40
2018-03-20T09:54:43.788Z,0.30
2018-03-20T09:55:46.996Z,0.40
2018-03-20T09:56:50.220Z,0.60
2018-03-20T09:57:53.441Z,0.70
2018-03-20T09:58:56.680Z,0.60
2018-03-20T09:59:59.910Z,0.40
2018-03-20T10:01:03.172Z,0.40
2018-03-20T10:02:06.389Z,0.50
2018-03-20T10:03:09.632Z,0.70
2018-03-20T10:04:12.850Z,0.70
2018-03-20T10:05:16.097Z,0.70
2018-03-20T10:06:19.325Z,0.60
2018-03-20T10:07:23.314Z,0.70
2018-03-20T10:08:26.644Z,0.60
2018-03-20T10:09:29.855Z,0.70
2018-03-20T10:10:33.083Z,0.70
2018-03-20T10:11:37.097Z,0.70
2018-03-20T10:12:40.408Z,0.70
2018-03-20T10:13:43.633Z,0.60
2018-03-20T10:14:46.955Z,0.30
2018-03-20T10:15:50.188Z,0.20
2018-03-20T10:16:53.391Z,0.10
2018-03-20T10:17:57.510Z,0.20
2018-03-20T10:19:01.600Z,0.30
2018-03-20T10:20:04.764Z,0.30
2018-03-20T10:21:07.953Z,0.50
2018-03-20T10:22:11.192Z,0.50
2018-03-20T10:23:14.424Z,0.70
2018-03-20T10:24:17.664Z,0.70
2018-03-20T10:25:20.913Z,0.80
2018-03-20T10:26:24.921Z,0.90
2018-03-20T10:27:28.182Z,0.90
2018-03-20T10:28:31.408Z,1.00
2018-03-20T10:29:34.674Z,0.90
2018-03-20T10:30:37.984Z,0.70
2018-03-20T10:31:41.216Z,0.60
2018-03-20T10:32:45.208Z,0.30
2018-03-20T10:33:48.450Z,0.30
2018-03-20T10:34:51.690Z,0.10
2018-03-20T10:35:55.662Z,0.00
2018-03-20T10:36:58.923Z,0.00
2018-03-20T10:38:02.219Z,0.00
2018-03-20T10:39:05.410Z,0.10
2018-03-20T10:40:08.628Z,0.10
2018-03-20T10:41:12.618Z,0.10
2018-03-20T10:42:16.590Z,0.20
2018-03-20T10:43:19.897Z,0.20
2018-03-20T10:44:23.901Z,0.50
2018-03-20T10:45:27.923Z,0.60
2018-03-20T10:46:31.885Z,0.50
2018-03-20T10:47:35.125Z,0.40
2018-03-20T10:48:38.465Z,0.30
2018-03-20T10:49:41.653Z,0.40
2018-03-20T10:50:45.645Z,0.40
2018-03-20T10:51:49.667Z,0.30
2018-03-20T10:52:53.706Z,0.40
2018-03-20T10:53:56.988Z,0.40
2018-03-20T10:55:00.241Z,0.50
2018-03-20T10:56:04.198Z,0.40
2018-03-20T10:57:07.494Z,0.40
2018-03-20T10:58:10.717Z,0.50
2018-03-20T10:59:13.954Z,0.50
2018-03-20T11:00:17.237Z,0.70
2018-03-20T11:01:26.273Z,1.10
2018-03-20T11:02:32.123Z,1.10
2018-03-20T11:03:36.092Z,0.80
2018-03-20T11:04:39.377Z,0.80
2018-03-20T11:05:42.565Z,0.80
2018-03-20T11:06:45.817Z,0.80
2018-03-20T11:07:49.030Z,0.60
2018-03-20T11:08:52.279Z,0.70
2018-03-20T11:09:55.536Z,0.90
2018-03-20T11:10:58.760Z,0.80
2018-03-20T11:12:01.977Z,0.80
2018-03-20T11:13:05.237Z,1.00
2018-03-20T11:14:08.475Z,1.10
2018-03-20T11:15:11.705Z,1.20
2018-03-20T11:16:14.933Z,1.40
2018-03-20T11:17:18.251Z,1.60
2018-03-20T11:18:21.469Z,1.70
2018-03-20T11:19:25.482Z,1.70
2018-03-20T11:20:29.493Z,1.80
2018-03-20T11:21:33.552Z,1.60
2018-03-20T11:22:36.766Z,1.60
2018-03-20T11:23:40.090Z,1.60
2018-03-20T11:24:43.326Z,1.70
2018-03-20T11:25:46.501Z,1.80
2018-03-20T11:26:49.729Z,1.70
2018-03-20T11:27:52.945Z,1.50
2018-03-20T11:28:56.189Z,1.30
2018-03-20T11:29:59.460Z,1.10
2018-03-20T11:31:02.654Z,1.00
2018-03-20T11:32:05.895Z,0.80
2018-03-20T11:33:09.131Z,0.70
2018-03-20T11:34:12.448Z,0.80
2018-03-20T11:35:15.674Z,0.90
2018-03-20T11:36:19.648Z,1.00
2018-03-20T11:37:22.866Z,1.00
2018-03-20T11:38:26.092Z,1.10
2018-03-20T11:39:29.343Z,1.10
2018-03-20T11:40:32.572Z,1.20
2018-03-20T11:41:35.830Z,1.40
2018-03-20T11:42:39.024Z,1.50
2018-03-20T11:43:43.084Z,1.40
2018-03-20T11:44:46.305Z,1.40
2018-03-20T11:45:49.542Z,1.40
2018-03-20T11:46:52.765Z,1.40
2018-03-20T11:47:56.012Z,1.40
2018-03-20T11:48:59.274Z,1.50
2018-03-20T11:50:02.466Z,1.70
2018-03-20T11:51:05.767Z,1.90
2018-03-20T11:52:08.997Z,2.00
2018-03-20T11:53:12.226Z,1.70
2018-03-20T11:54:15.450Z,1.60
2018-03-20T11:55:18.685Z,1.70
2018-03-20T11:56:21.930Z,1.40
2018-03-20T11:57:25.904Z,1.10
2018-03-20T11:58:29.113Z,1.10
2018-03-20T11:59:32.330Z,1.10
2018-03-20T12:00:35.576Z,1.10
2018-03-20T12:01:38.797Z,1.00
2018-03-20T12:02:42.025Z,1.10
2018-03-20T12:03:45.234Z,1.00
2018-03-20T12:04:50.001Z,1.40
2018-03-20T12:05:53.262Z,1.40
2018-03-20T12:06:57.281Z,1.80
2018-03-20T12:08:08.132Z,1.80
2018-03-20T12:09:23.337Z,1.80
2018-03-20T12:10:26.556Z,1.70
2018-03-20T12:11:30.531Z,1.70
2018-03-20T12:12:33.753Z,1.70
2018-03-20T12:13:36.966Z,1.90
2018-03-20T12:14:40.210Z,2.00
2018-03-20T12:15:44.180Z,2.40
2018-03-20T12:16:47.397Z,2.40
2018-03-20T12:17:50.714Z,2.60
2018-03-20T12:18:53.921Z,2.50
2018-03-20T12:19:57.144Z,2.40
2018-03-20T12:21:01.145Z,2.70
2018-03-20T12:22:05.143Z,2.70
2018-03-20T12:23:09.158Z,2.50
2018-03-20T12:24:12.396Z,2.40
2018-03-20T12:25:15.686Z,2.60
2018-03-20T12:26:18.837Z,2.50
2018-03-20T12:27:22.094Z,2.30
2018-03-20T12:28:25.397Z,2.10
2018-03-20T12:29:28.597Z,1.80
2018-03-20T12:30:31.860Z,1.60
2018-03-20T12:31:35.073Z,1.40
2018-03-20T12:32:38.311Z,1.30
2018-03-20T12:33:41.578Z,1.20
2018-03-20T12:34:45.570Z,1.10
2018-03-20T12:35:49.628Z,0.90
2018-03-20T12:36:52.924Z,0.90
2018-03-20T12:37:56.140Z,0.70
2018-03-20T12:39:00.122Z,0.60
2018-03-20T12:40:03.434Z,0.60
2018-03-20T12:41:06.649Z,0.70
2018-03-20T12:42:09.906Z,0.90
2018-03-20T12:43:13.237Z,1.20
2018-03-20T12:44:16.456Z,1.40
2018-03-20T12:45:19.687Z,1.70
2018-03-20T12:46:22.904Z,1.80
2018-03-20T12:47:26.164Z,1.90
2018-03-20T12:48:29.433Z,2.10
2018-03-20T12:49:33.450Z,2.20
2018-03-20T12:50:36.718Z,2.20
2018-03-20T12:51:40.739Z,1.70
2018-03-20T12:52:44.706Z,1.60
2018-03-20T12:53:48.701Z,1.70
2018-03-20T12:54:51.912Z,1.70
2018-03-20T12:55:55.144Z,1.80
2018-03-20T12:56:58.385Z,2.00
2018-03-20T12:58:01.639Z,2.30
2018-03-20T12:59:04.890Z,2.30
2018-03-20T13:00:08.200Z,2.10
2018-03-20T13:01:11.425Z,2.10
2018-03-20T13:02:14.669Z,2.40
2018-03-20T13:03:17.864Z,2.40
2018-03-20T13:04:21.883Z,2.50
2018-03-20T13:05:25.109Z,2.50
2018-03-20T13:06:28.322Z,2.60
2018-03-20T13:07:32.327Z,2.50
2018-03-20T13:08:36.317Z,2.70
2018-03-20T13:09:39.528Z,2.70
2018-03-20T13:10:42.814Z,3.10
2018-03-20T13:11:46.191Z,3.40
2018-03-20T13:12:50.169Z,3.70
2018-03-20T13:13:53.560Z,3.60
2018-03-20T13:14:57.590Z,3.50
2018-03-20T13:16:00.808Z,3.50
2018-03-20T13:17:04.029Z,3.20
2018-03-20T13:18:07.253Z,2.90
2018-03-20T13:19:10.472Z,2.80
2018-03-20T13:20:13.681Z,2.70
2018-03-20T13:21:17.701Z,2.50
2018-03-20T13:22:21.670Z,2.60
2018-03-20T13:23:24.958Z,2.60
2018-03-20T13:24:28.142Z,2.40
2018-03-20T13:25:32.120Z,2.20
2018-03-20T13:26:35.332Z,2.20
2018-03-20T13:27:39.359Z,2.70
2018-03-20T13:28:42.583Z,2.70
2018-03-20T13:29:45.805Z,3.20
2018-03-20T13:30:49.788Z,3.60
2018-03-20T13:31:53.969Z,3.60
2018-03-20T13:32:57.175Z,3.90
2018-03-20T13:34:00.404Z,4.20
2018-03-20T13:35:03.624Z,4.20
2018-03-20T13:36:06.869Z,4.40
2018-03-20T13:37:10.101Z,4.80
2018-03-20T13:38:13.423Z,4.50
2018-03-20T13:39:16.663Z,4.50
2018-03-20T13:40:19.861Z,4.30
2018-03-20T13:41:23.901Z,4.20
2018-03-20T13:42:27.118Z,4.20
2018-03-20T13:43:30.343Z,3.90
2018-03-20T13:44:33.569Z,3.90
2018-03-20T13:45:36.810Z,3.90
2018-03-20T13:46:40.030Z,4.00
2018-03-20T13:47:43.256Z,4.00
2018-03-20T13:48:47.245Z,4.10
2018-03-20T13:49:50.474Z,4.10
2018-03-20T13:50:54.460Z,3.20
2018-03-20T13:51:58.468Z,3.10